Time;durP1;ratioP1;P1;durP2;ratioP2;P2;SDS_P1;SDS_P2;PMS_P1;PMS_P2;Temp;Humidity;BMP_temperature;BMP_pressure;BME280_temperature;BME280_humidity;BME280_pressure;Samples;Min_cycle;Max_cycle;Signal;HPM_P1;HPM_P2
2023/03/07 00:00:14;;;;;;;;;;;4.80;99.90;;;;;;8383516;28;19932;-69
2023/03/07 00:04:16;;;;;;;;;;;4.70;99.90;;;;;;8386170;28;19932;-69
2023/03/07 00:08:18;;;;;;;;;;;4.70;99.90;;;;;;8381606;28;20406;-69
2023/03/07 00:12:21;;;;;;;;;;;4.70;99.90;;;;;;8390720;28;19930;-69
2023/03/07 00:16:23;;;;;;;;;;;4.60;99.90;;;;;;8392430;28;20334;-69
2023/03/07 00:20:24;;;;;;;;;;;4.60;99.90;;;;;;8389062;28;19925;-69
2023/03/07 00:24:26;;;;;;;;;;;4.70;99.90;;;;;;8395300;28;19924;-69
2023/03/07 00:28:28;;;;;;;;;;;4.70;99.90;;;;;;8390839;28;20075;-69
2023/03/07 00:32:30;;;;;;;;;;;4.70;99.90;;;;;;8384365;28;19928;-69
2023/03/07 00:36:31;;;;;;;;;;;4.70;99.90;;;;;;8386486;28;20284;-69
2023/03/07 00:40:33;;;;;;;;;;;4.80;99.90;;;;;;8364633;28;19928;-69
2023/03/07 00:44:35;;;;;;;;;;;4.80;99.90;;;;;;8391602;28;19925;-69
2023/03/07 00:48:37;;;;;;;;;;;4.80;99.90;;;;;;8389682;28;19930;-70
2023/03/07 00:52:39;;;;;;;;;;;4.90;99.90;;;;;;8367798;28;19943;-69
2023/03/07 00:56:40;;;;;;;;;;;4.90;99.90;;;;;;8389903;28;19929;-69
2023/03/07 01:00:42;;;;;;;;;;;4.90;99.90;;;;;;8377450;28;19928;-69
2023/03/07 01:04:44;;;;;;;;;;;4.90;99.90;;;;;;8392439;28;19928;-69
2023/03/07 01:08:45;;;;;;;;;;;4.90;99.90;;;;;;8386254;28;19963;-69
2023/03/07 01:12:47;;;;;;;;;;;4.90;99.90;;;;;;8387865;28;19925;-69
2023/03/07 01:16:49;;;;;;;;;;;4.90;99.90;;;;;;8383731;28;20295;-69
2023/03/07 01:20:51;;;;;;;;;;;4.90;99.90;;;;;;8382758;28;20244;-69
2023/03/07 01:24:52;;;;;;;;;;;4.90;99.90;;;;;;8386478;28;19936;-69
2023/03/07 01:28:55;;;;;;;;;;;4.90;99.90;;;;;;8387393;28;19933;-69
2023/03/07 01:32:57;;;;;;;;;;;4.90;99.90;;;;;;8387150;28;19924;-69
2023/03/07 01:36:59;;;;;;;;;;;4.90;99.90;;;;;;8387675;28;19935;-69
2023/03/07 01:41:01;;;;;;;;;;;5.00;99.90;;;;;;8381817;28;19929;-69
2023/03/07 01:45:12;;;;;;;;;;;5.00;99.90;;;;;;8389606;28;19924;-69
2023/03/07 01:49:16;;;;;;;;;;;5.00;99.90;;;;;;8381315;28;19981;-69
2023/03/07 01:53:18;;;;;;;;;;;5.00;99.90;;;;;;8387561;28;19933;-69
2023/03/07 01:57:22;;;;;;;;;;;4.90;99.90;;;;;;8389537;28;19939;-70
2023/03/07 02:01:24;;;;;;;;;;;4.90;99.90;;;;;;8392025;28;19928;-69
2023/03/07 02:05:27;;;;;;;;;;;4.90;99.90;;;;;;8387085;28;19942;-69
2023/03/07 02:09:30;;;;;;;;;;;4.90;99.90;;;;;;8377953;28;19969;-69
2023/03/07 02:13:31;;;;;;;;;;;4.90;99.90;;;;;;8380896;28;19925;-69
2023/03/07 02:22:37;;;;;;;;;;;4.90;99.90;;;;;;8382707;28;20364;-69
2023/03/07 02:26:41;;;;;;;;;;;4.80;99.90;;;;;;8379247;28;20019;-69
2023/03/07 02:30:57;;;;;;;;;;;4.80;99.90;;;;;;8382383;28;19935;-69
2023/03/07 02:34:58;;;;;;;;;;;4.80;99.90;;;;;;8388483;28;20014;-70
2023/03/07 02:39:01;;;;;;;;;;;4.80;99.90;;;;;;8395380;28;19928;-70
2023/03/07 02:43:08;;;;;;;;;;;4.80;99.90;;;;;;8383514;28;20291;-69
2023/03/07 02:47:10;;;;;;;;;;;4.80;99.90;;;;;;8392694;28;19928;-69
2023/03/07 02:51:11;;;;;;;;;;;4.80;99.90;;;;;;8384486;28;19924;-70
2023/03/07 02:55:13;;;;;;;;;;;4.80;99.90;;;;;;8381259;28;20340;-69
2023/03/07 02:59:15;;;;;;;;;;;4.80;99.90;;;;;;8383763;28;19936;-69
2023/03/07 03:03:17;;;;;;;;;;;4.80;99.90;;;;;;8391105;28;19925;-69
2023/03/07 03:07:18;;;;;;;;;;;4.80;99.90;;;;;;8389539;28;19931;-69
2023/03/07 03:11:20;;;;;;;;;;;4.90;99.90;;;;;;8381320;28;19933;-69
2023/03/07 03:15:21;;;;;;;;;;;4.90;99.90;;;;;;8371486;28;19935;-70
2023/03/07 03:19:23;;;;;;;;;;;4.90;99.90;;;;;;8384976;28;19936;-69
2023/03/07 03:23:28;;;;;;;;;;;4.90;99.90;;;;;;8381657;28;19928;-69
2023/03/07 03:27:33;;;;;;;;;;;4.90;99.90;;;;;;8382448;28;20280;-69
2023/03/07 03:31:34;;;;;;;;;;;4.90;99.90;;;;;;8384311;28;19960;-69
2023/03/07 03:35:38;;;;;;;;;;;4.90;99.90;;;;;;8384248;28;19924;-69
2023/03/07 03:39:39;;;;;;;;;;;4.90;99.90;;;;;;8380658;28;19936;-69
2023/03/07 03:43:41;;;;;;;;;;;4.90;99.90;;;;;;8377713;28;19932;-69
2023/03/07 03:47:43;;;;;;;;;;;4.90;99.90;;;;;;8379885;28;19933;-69
2023/03/07 03:51:44;;;;;;;;;;;4.90;99.90;;;;;;8384642;28;20214;-69
2023/03/07 03:55:46;;;;;;;;;;;4.90;99.90;;;;;;8394162;28;19924;-69
2023/03/07 03:59:48;;;;;;;;;;;4.90;99.90;;;;;;8389675;28;19960;-69
2023/03/07 04:03:50;;;;;;;;;;;4.90;99.90;;;;;;8382164;28;19930;-69
2023/03/07 04:07:51;;;;;;;;;;;4.90;99.90;;;;;;8391369;28;19928;-69
2023/03/07 04:11:53;;;;;;;;;;;4.90;99.90;;;;;;8384285;28;19924;-69
2023/03/07 04:15:55;;;;;;;;;;;4.90;99.90;;;;;;8390785;28;19929;-69
2023/03/07 04:19:57;;;;;;;;;;;4.90;99.90;;;;;;8393164;28;19932;-69
2023/03/07 04:23:58;;;;;;;;;;;4.90;99.90;;;;;;8388684;28;19924;-69
2023/03/07 04:28:00;;;;;;;;;;;4.90;99.90;;;;;;8373693;28;19929;-69
2023/03/07 04:32:02;;;;;;;;;;;4.90;99.90;;;;;;8391635;28;19925;-69
2023/03/07 04:36:04;;;;;;;;;;;4.80;99.90;;;;;;8394214;28;19971;-69
2023/03/07 04:40:06;;;;;;;;;;;4.80;99.90;;;;;;8384286;28;19928;-69
2023/03/07 04:44:07;;;;;;;;;;;4.80;99.90;;;;;;8385839;28;20028;-69
2023/03/07 04:48:09;;;;;;;;;;;4.70;99.90;;;;;;8367470;28;19975;-69
2023/03/07 04:52:11;;;;;;;;;;;4.70;99.90;;;;;;8387044;28;19924;-69
2023/03/07 04:56:15;;;;;;;;;;;4.60;99.90;;;;;;8392539;28;20006;-69
2023/03/07 05:00:18;;;;;;;;;;;4.60;99.90;;;;;;8394490;28;20417;-69
2023/03/07 05:04:19;;;;;;;;;;;4.50;99.90;;;;;;8385360;28;19998;-69
2023/03/07 05:08:21;;;;;;;;;;;4.40;99.90;;;;;;8379261;28;19925;-69
2023/03/07 05:12:23;;;;;;;;;;;4.30;99.90;;;;;;8372421;28;20380;-69
2023/03/07 05:16:25;;;;;;;;;;;4.30;99.90;;;;;;8387489;28;19928;-69
2023/03/07 05:20:28;;;;;;;;;;;4.30;99.90;;;;;;8399986;28;19936;-69
2023/03/07 05:24:30;;;;;;;;;;;4.30;99.90;;;;;;8395569;28;20323;-69
2023/03/07 05:28:32;;;;;;;;;;;4.30;99.90;;;;;;8385136;28;19971;-69
2023/03/07 05:32:34;;;;;;;;;;;4.30;99.90;;;;;;8382680;28;19936;-69
2023/03/07 05:36:36;;;;;;;;;;;4.20;99.90;;;;;;8369677;28;19924;-69
2023/03/07 05:40:37;;;;;;;;;;;4.20;99.90;;;;;;8380332;28;19960;-69
2023/03/07 05:44:39;;;;;;;;;;;4.10;99.90;;;;;;8382113;28;20368;-69
2023/03/07 05:48:40;;;;;;;;;;;4.10;99.90;;;;;;8387359;28;19982;-69
2023/03/07 05:52:42;;;;;;;;;;;4.00;99.90;;;;;;8385993;28;19979;-69
2023/03/07 05:56:44;;;;;;;;;;;4.00;99.90;;;;;;8368352;28;20861;-69
2023/03/07 06:00:45;;;;;;;;;;;3.80;99.90;;;;;;8383963;28;19928;-69
2023/03/07 06:04:47;;;;;;;;;;;3.60;99.90;;;;;;8378901;28;20303;-69
2023/03/07 06:08:49;;;;;;;;;;;3.50;99.90;;;;;;8385356;28;20028;-69
2023/03/07 06:12:51;;;;;;;;;;;3.40;99.90;;;;;;8381270;28;19931;-69
2023/03/07 06:16:52;;;;;;;;;;;3.40;99.90;;;;;;8386877;28;19978;-69
2023/03/07 06:20:58;;;;;;;;;;;3.30;99.90;;;;;;8378243;28;19925;-69
2023/03/07 06:24:59;;;;;;;;;;;3.30;99.90;;;;;;8381504;28;20347;-69
2023/03/07 06:29:01;;;;;;;;;;;3.30;99.90;;;;;;8386439;28;19964;-69
2023/03/07 06:33:03;;;;;;;;;;;3.20;99.90;;;;;;8386857;28;19939;-69
2023/03/07 06:37:04;;;;;;;;;;;3.20;99.90;;;;;;8385445;28;20314;-69
2023/03/07 06:41:06;;;;;;;;;;;3.10;99.90;;;;;;8382697;28;19928;-69
2023/03/07 06:45:08;;;;;;;;;;;3.10;99.90;;;;;;8379781;28;19925;-69
2023/03/07 06:49:09;;;;;;;;;;;3.10;99.90;;;;;;8403068;28;20158;-69
2023/03/07 06:53:11;;;;;;;;;;;3.00;99.90;;;;;;8385104;28;19932;-69
2023/03/07 06:57:13;;;;;;;;;;;3.00;99.90;;;;;;8391680;28;20455;-69
2023/03/07 07:01:18;;;;;;;;;;;2.90;99.90;;;;;;8381935;28;19932;-69
2023/03/07 07:05:20;;;;;;;;;;;2.90;99.90;;;;;;8390624;28;19939;-69
2023/03/07 07:09:21;;;;;;;;;;;2.80;99.90;;;;;;8389787;28;19935;-69
2023/03/07 07:13:23;;;;;;;;;;;2.80;99.90;;;;;;8381465;28;19924;-69
2023/03/07 07:17:24;;;;;;;;;;;2.80;99.90;;;;;;8388606;28;19929;-69
2023/03/07 07:21:26;;;;;;;;;;;2.80;99.90;;;;;;8387192;28;19934;-69
2023/03/07 07:25:28;;;;;;;;;;;2.80;99.90;;;;;;8386518;28;19924;-69
2023/03/07 07:29:29;;;;;;;;;;;2.80;99.90;;;;;;8390768;28;19928;-69
2023/03/07 07:33:31;;;;;;;;;;;2.90;99.90;;;;;;8389731;28;19932;-69
2023/03/07 07:37:32;;;;;;;;;;;2.90;99.90;;;;;;8391875;28;19967;-69
2023/03/07 07:41:34;;;;;;;;;;;2.90;99.90;;;;;;8374799;28;19924;-69
2023/03/07 07:45:36;;;;;;;;;;;2.90;99.90;;;;;;8385110;28;19928;-69
2023/03/07 07:49:38;;;;;;;;;;;2.90;99.90;;;;;;8384372;28;19928;-69
2023/03/07 07:53:39;;;;;;;;;;;2.90;99.90;;;;;;8385169;28;20352;-69
2023/03/07 07:57:41;;;;;;;;;;;2.90;99.90;;;;;;8363879;28;19925;-69
2023/03/07 08:01:43;;;;;;;;;;;2.90;99.90;;;;;;8389004;28;19924;-69
2023/03/07 08:05:47;;;;;;;;;;;2.80;99.90;;;;;;8387605;28;20309;-69
2023/03/07 08:09:48;;;;;;;;;;;2.80;99.90;;;;;;8385528;28;20373;-69
2023/03/07 08:13:50;;;;;;;;;;;2.80;99.90;;;;;;8392460;28;20015;-69
2023/03/07 08:17:52;;;;;;;;;;;2.80;99.90;;;;;;8381138;28;20276;-69
2023/03/07 08:21:53;;;;;;;;;;;2.80;99.90;;;;;;8382443;28;19967;-69
2023/03/07 08:26:00;;;;;;;;;;;2.90;99.90;;;;;;8388499;28;19982;-69
2023/03/07 08:30:01;;;;;;;;;;;2.90;99.90;;;;;;8385008;28;19978;-69
2023/03/07 08:34:03;;;;;;;;;;;2.90;99.90;;;;;;8392577;28;20269;-69
2023/03/07 08:38:04;;;;;;;;;;;2.90;99.90;;;;;;8397359;28;19924;-69
2023/03/07 08:42:06;;;;;;;;;;;3.00;99.90;;;;;;8386503;28;19929;-69
2023/03/07 08:46:08;;;;;;;;;;;3.00;99.90;;;;;;8380121;28;19931;-69
2023/03/07 08:50:10;;;;;;;;;;;3.00;99.90;;;;;;8397816;28;20008;-69
2023/03/07 08:54:11;;;;;;;;;;;3.00;99.90;;;;;;8391119;28;20341;-69
2023/03/07 08:58:13;;;;;;;;;;;3.00;99.90;;;;;;8387810;28;19925;-69
2023/03/07 09:02:15;;;;;;;;;;;3.00;99.90;;;;;;8373820;28;19929;-69
2023/03/07 09:06:18;;;;;;;;;;;3.00;99.90;;;;;;8394905;28;19937;-69
2023/03/07 09:10:21;;;;;;;;;;;3.00;99.90;;;;;;8378180;28;19924;-69
2023/03/07 09:14:22;;;;;;;;;;;3.00;99.90;;;;;;8395298;28;19950;-69
2023/03/07 09:18:24;;;;;;;;;;;3.00;99.90;;;;;;8390519;28;20340;-69
2023/03/07 09:22:26;;;;;;;;;;;3.00;99.90;;;;;;8389745;28;20458;-69
2023/03/07 09:26:27;;;;;;;;;;;3.10;99.90;;;;;;8385842;28;20376;-69
2023/03/07 09:30:29;;;;;;;;;;;3.10;99.90;;;;;;8373219;28;20430;-69
2023/03/07 09:34:31;;;;;;;;;;;3.10;99.90;;;;;;8381737;28;20058;-69
2023/03/07 09:38:33;;;;;;;;;;;3.10;99.90;;;;;;8369281;28;19925;-69
2023/03/07 09:42:35;;;;;;;;;;;3.10;99.90;;;;;;8362287;28;20368;-69
2023/03/07 09:46:44;;;;;;;;;;;3.20;99.90;;;;;;8382122;28;19932;-69
2023/03/07 09:50:54;;;;;;;;;;;3.30;99.90;;;;;;8379585;28;20020;-69
2023/03/07 09:54:58;;;;;;;;;;;3.30;99.90;;;;;;8372288;28;20372;-69
2023/03/07 09:59:08;;;;;;;;;;;3.40;99.90;;;;;;8386339;28;20008;-69
2023/03/07 10:03:42;;;;;;;;;;;3.40;99.90;;;;;;8382852;28;19925;-69
2023/03/07 10:07:43;;;;;;;;;;;3.50;99.90;;;;;;8387445;28;20015;-69
2023/03/07 10:12:03;;;;;;;;;;;3.50;99.90;;;;;;8383792;28;20311;-69
2023/03/07 10:16:19;;;;;;;;;;;3.60;99.90;;;;;;8370947;28;19924;-69
2023/03/07 10:20:21;;;;;;;;;;;3.70;99.90;;;;;;8371409;28;19931;-69
2023/03/07 10:24:44;;;;;;;;;;;3.70;99.90;;;;;;8392029;28;20006;-69
2023/03/07 10:28:46;;;;;;;;;;;3.80;99.90;;;;;;8392598;28;19924;-69
2023/03/07 10:32:57;;;;;;;;;;;3.80;99.90;;;;;;8393472;28;20337;-69
2023/03/07 10:37:09;;;;;;;;;;;3.90;99.90;;;;;;8376477;28;19931;-69
2023/03/07 10:41:15;;;;;;;;;;;3.90;99.90;;;;;;8384760;28;19947;-69
2023/03/07 10:45:16;;;;;;;;;;;4.00;99.90;;;;;;8389007;28;20336;-69
2023/03/07 10:49:20;;;;;;;;;;;4.10;99.90;;;;;;8386729;28;19943;-69
2023/03/07 10:53:26;;;;;;;;;;;4.20;99.90;;;;;;8394534;28;20403;-69
2023/03/07 10:57:27;;;;;;;;;;;4.30;99.90;;;;;;8391030;28;19925;-69
2023/03/07 11:01:30;;;;;;;;;;;4.40;99.90;;;;;;8384642;28;19935;-69
2023/03/07 11:05:34;;;;;;;;;;;4.50;99.90;;;;;;8387906;28;19928;-69
2023/03/07 11:09:45;;;;;;;;;;;4.50;99.90;;;;;;8367330;28;19940;-69
2023/03/07 11:14:03;;;;;;;;;;;4.50;99.90;;;;;;8392834;28;19932;-69
2023/03/07 11:18:23;;;;;;;;;;;4.50;99.90;;;;;;8386446;28;19947;-69
2023/03/07 11:22:32;;;;;;;;;;;4.40;99.90;;;;;;8382045;28;19924;-69
2023/03/07 11:26:40;;;;;;;;;;;4.30;99.90;;;;;;8383400;28;20288;-69
2023/03/07 11:30:47;;;;;;;;;;;4.20;99.90;;;;;;8381881;28;20291;-69
2023/03/07 11:34:55;;;;;;;;;;;3.90;99.90;;;;;;8381419;28;19924;-69
2023/03/07 11:39:23;;;;;;;;;;;3.80;99.90;;;;;;8383848;28;19940;-69
2023/03/07 11:43:24;;;;;;;;;;;3.60;99.90;;;;;;8363674;28;19967;-69
2023/03/07 11:47:35;;;;;;;;;;;3.60;99.90;;;;;;8371882;28;19925;-69
2023/03/07 11:51:37;;;;;;;;;;;3.70;99.90;;;;;;8368634;28;20004;-69
2023/03/07 11:55:54;;;;;;;;;;;3.70;99.90;;;;;;8383521;28;19924;-69
2023/03/07 12:00:01;;;;;;;;;;;3.70;99.90;;;;;;8369574;28;20318;-69
2023/03/07 12:04:12;;;;;;;;;;;3.70;99.90;;;;;;8360567;28;19925;-69
2023/03/07 12:08:23;;;;;;;;;;;3.70;99.90;;;;;;8366563;28;20406;-69
2023/03/07 12:12:40;;;;;;;;;;;3.80;99.90;;;;;;8390936;28;20403;-69
2023/03/07 12:17:00;;;;;;;;;;;3.90;99.90;;;;;;8378567;28;19928;-69
2023/03/07 12:21:02;;;;;;;;;;;3.90;99.90;;;;;;8367608;28;20402;-69
2023/03/07 12:25:06;;;;;;;;;;;4.00;99.90;;;;;;8381977;28;20380;-69
2023/03/07 12:29:33;;;;;;;;;;;4.10;99.90;;;;;;8372920;28;19939;-69
2023/03/07 12:33:53;;;;;;;;;;;4.00;99.90;;;;;;8376818;28;20011;-69
2023/03/07 12:38:30;;;;;;;;;;;3.60;99.90;;;;;;8375127;28;19924;-69
2023/03/07 12:42:41;;;;;;;;;;;3.50;99.90;;;;;;8309697;28;20296;-69
2023/03/07 12:46:46;;;;;;;;;;;3.40;99.90;;;;;;8384106;28;19929;-69
2023/03/07 12:51:07;;;;;;;;;;;3.30;99.90;;;;;;8366230;28;19929;-69
2023/03/07 12:55:27;;;;;;;;;;;3.30;99.90;;;;;;8364181;28;20299;-69
2023/03/07 12:59:31;;;;;;;;;;;3.30;99.90;;;;;;8359883;28;20395;-69
2023/03/07 13:03:48;;;;;;;;;;;3.40;99.90;;;;;;8341168;28;19939;-69
2023/03/07 13:07:50;;;;;;;;;;;3.50;99.90;;;;;;8368453;28;20273;-69
2023/03/07 13:12:10;;;;;;;;;;;3.60;99.90;;;;;;8372308;28;19928;-69
2023/03/07 13:16:29;;;;;;;;;;;3.70;99.90;;;;;;8361606;28;19935;-69
2023/03/07 13:20:34;;;;;;;;;;;3.70;99.90;;;;;;8372955;28;19987;-69
2023/03/07 13:24:38;;;;;;;;;;;3.70;99.90;;;;;;8373750;28;22491;-69
2023/03/07 13:28:44;;;;;;;;;;;3.80;99.90;;;;;;8368582;28;19950;-67
2023/03/07 13:32:45;;;;;;;;;;;3.80;99.90;;;;;;8370580;28;20365;-67
2023/03/07 13:36:47;;;;;;;;;;;3.80;99.90;;;;;;8366009;28;20303;-67
2023/03/07 13:40:51;;;;;;;;;;;3.80;99.90;;;;;;8344812;28;20261;-66
2023/03/07 13:44:53;;;;;;;;;;;3.80;99.90;;;;;;8376114;28;19959;-67
2023/03/07 13:48:55;;;;;;;;;;;3.70;99.90;;;;;;8367861;28;20329;-67
2023/03/07 13:52:58;;;;;;;;;;;3.70;99.90;;;;;;8368304;28;19932;-67
2023/03/07 13:56:59;;;;;;;;;;;3.60;99.90;;;;;;8354780;28;19959;-67
2023/03/07 14:01:11;;;;;;;;;;;3.50;99.90;;;;;;8386956;28;19946;-67
2023/03/07 14:05:12;;;;;;;;;;;3.50;99.90;;;;;;8370658;28;19928;-66
2023/03/07 14:09:17;;;;;;;;;;;3.40;99.90;;;;;;8372292;28;20409;-67
2023/03/07 14:13:18;;;;;;;;;;;3.40;99.90;;;;;;8355210;28;19928;-67
2023/03/07 14:17:39;;;;;;;;;;;3.40;99.90;;;;;;8367737;28;19929;-67
2023/03/07 14:21:47;;;;;;;;;;;3.50;99.90;;;;;;8370347;28;19975;-67
2023/03/07 14:25:50;;;;;;;;;;;3.50;99.90;;;;;;8350698;28;19929;-67
2023/03/07 14:29:55;;;;;;;;;;;3.50;99.90;;;;;;8366450;28;20304;-67
2023/03/07 14:33:57;;;;;;;;;;;3.50;99.90;;;;;;8363900;28;20023;-67
2023/03/07 14:37:59;;;;;;;;;;;3.50;99.90;;;;;;8356941;28;19935;-67
2023/03/07 14:42:39;;;;;;;;;;;3.50;99.90;;;;;;8354945;28;19929;-67
2023/03/07 14:46:59;;;;;;;;;;;3.40;99.90;;;;;;8282435;28;20524;-67
2023/03/07 14:51:05;;;;;;;;;;;3.50;99.90;;;;;;8310483;28;20386;-67
2023/03/07 14:55:13;;;;;;;;;;;3.60;99.90;;;;;;8357159;28;20352;-67
2023/03/07 14:59:15;;;;;;;;;;;3.60;99.90;;;;;;8357065;28;20315;-67
2023/03/07 15:03:28;;;;;;;;;;;3.60;99.90;;;;;;8360771;28;19925;-67
2023/03/07 15:07:34;;;;;;;;;;;3.60;99.90;;;;;;8353122;28;20023;-67
2023/03/07 15:11:41;;;;;;;;;;;3.60;99.90;;;;;;8345479;28;19947;-67
2023/03/07 15:15:45;;;;;;;;;;;3.60;99.90;;;;;;8344158;28;19929;-67
2023/03/07 15:19:47;;;;;;;;;;;3.60;99.90;;;;;;8366901;28;19924;-67
2023/03/07 15:23:49;;;;;;;;;;;3.60;99.90;;;;;;8345803;28;20438;-67
2023/03/07 15:28:21;;;;;;;;;;;3.50;99.90;;;;;;8355991;28;19925;-67
2023/03/07 15:32:28;;;;;;;;;;;3.50;99.90;;;;;;8348789;28;19929;-67
2023/03/07 15:36:30;;;;;;;;;;;3.50;99.90;;;;;;8364195;28;20411;-67
2023/03/07 15:40:33;;;;;;;;;;;3.50;99.90;;;;;;8373089;28;19924;-67
2023/03/07 15:44:36;;;;;;;;;;;3.50;99.90;;;;;;8370275;28;19935;-67
2023/03/07 15:48:49;;;;;;;;;;;3.50;99.90;;;;;;8364861;28;20671;-66
2023/03/07 15:52:52;;;;;;;;;;;3.50;99.90;;;;;;8365757;28;19924;-67
2023/03/07 15:56:55;;;;;;;;;;;3.60;99.90;;;;;;8379555;28;20430;-68
2023/03/07 16:01:14;;;;;;;;;;;3.60;99.90;;;;;;8364092;28;19947;-67
2023/03/07 16:05:19;;;;;;;;;;;3.60;99.90;;;;;;8369226;28;19929;-67
2023/03/07 16:09:21;;;;;;;;;;;3.60;99.90;;;;;;8369203;28;20023;-67
2023/03/07 16:13:26;;;;;;;;;;;3.60;99.90;;;;;;8370519;28;19943;-67
2023/03/07 16:17:30;;;;;;;;;;;3.60;99.90;;;;;;8367922;28;20411;-67
2023/03/07 16:21:32;;;;;;;;;;;3.60;99.90;;;;;;8364417;28;19962;-67
2023/03/07 16:25:33;;;;;;;;;;;3.60;99.90;;;;;;8367686;28;19970;-67
2023/03/07 16:29:35;;;;;;;;;;;3.50;99.90;;;;;;8368040;28;20023;-67
2023/03/07 16:33:37;;;;;;;;;;;3.50;99.90;;;;;;8365258;28;20368;-67
2023/03/07 16:37:39;;;;;;;;;;;3.50;99.90;;;;;;8359233;28;24318;-67
2023/03/07 16:41:45;;;;;;;;;;;3.40;99.90;;;;;;8368422;28;19987;-67
2023/03/07 16:45:47;;;;;;;;;;;3.40;99.90;;;;;;8366642;28;20384;-67
2023/03/07 16:49:49;;;;;;;;;;;3.40;99.90;;;;;;8368180;28;19932;-67
2023/03/07 16:53:51;;;;;;;;;;;3.50;99.90;;;;;;8362190;28;19924;-67
2023/03/07 16:57:56;;;;;;;;;;;3.50;99.90;;;;;;8361608;28;19931;-67
2023/03/07 17:01:58;;;;;;;;;;;3.50;99.90;;;;;;8361157;28;19924;-67
2023/03/07 17:05:59;;;;;;;;;;;3.50;99.90;;;;;;8373428;28;19983;-67
2023/03/07 17:10:01;;;;;;;;;;;3.50;99.90;;;;;;8356233;28;19929;-67
2023/03/07 17:14:04;;;;;;;;;;;3.50;99.90;;;;;;8362109;28;19935;-67
2023/03/07 17:18:06;;;;;;;;;;;3.50;99.90;;;;;;8359505;28;20283;-67
2023/03/07 17:22:08;;;;;;;;;;;3.40;99.90;;;;;;8355845;28;19936;-67
2023/03/07 17:26:16;;;;;;;;;;;3.40;99.90;;;;;;8355888;28;19929;-67
2023/03/07 17:30:22;;;;;;;;;;;3.40;99.90;;;;;;8356725;28;19978;-67
2023/03/07 17:34:25;;;;;;;;;;;3.40;99.90;;;;;;8358256;28;19929;-67
2023/03/07 17:38:27;;;;;;;;;;;3.40;99.90;;;;;;8370612;28;19925;-67
2023/03/07 17:42:28;;;;;;;;;;;3.30;99.90;;;;;;8358169;28;19940;-67
2023/03/07 17:46:30;;;;;;;;;;;3.30;99.90;;;;;;8357346;28;19929;-67
2023/03/07 17:50:31;;;;;;;;;;;3.30;99.90;;;;;;8357910;28;19932;-67
2023/03/07 17:54:33;;;;;;;;;;;3.20;99.90;;;;;;8333236;28;19970;-67
2023/03/07 17:58:37;;;;;;;;;;;3.10;99.90;;;;;;8361096;28;19940;-66
2023/03/07 18:02:39;;;;;;;;;;;3.10;99.90;;;;;;8362056;28;19932;-67
2023/03/07 18:06:41;;;;;;;;;;;3.00;99.90;;;;;;8354847;28;19959;-67
2023/03/07 18:10:43;;;;;;;;;;;3.00;99.90;;;;;;8355095;28;19983;-67
2023/03/07 18:14:44;;;;;;;;;;;2.90;99.90;;;;;;8350506;28;20281;-67
2023/03/07 18:18:46;;;;;;;;;;;2.90;99.90;;;;;;8359335;28;20015;-67
2023/03/07 18:23:00;;;;;;;;;;;2.90;99.90;;;;;;8354238;28;19987;-67
2023/03/07 18:27:02;;;;;;;;;;;2.90;99.90;;;;;;8355416;28;20559;-67
2023/03/07 18:31:05;;;;;;;;;;;2.80;99.90;;;;;;8354156;28;19979;-67
2023/03/07 18:35:07;;;;;;;;;;;2.70;99.90;;;;;;8370368;28;19925;-67
2023/03/07 18:39:12;;;;;;;;;;;2.60;99.90;;;;;;8355141;28;19932;-67
2023/03/07 18:43:14;;;;;;;;;;;2.50;99.90;;;;;;8371033;28;20036;-67
2023/03/07 18:47:15;;;;;;;;;;;2.40;99.90;;;;;;8354787;28;20022;-67
2023/03/07 18:51:22;;;;;;;;;;;2.30;99.90;;;;;;8352679;28;20384;-67
2023/03/07 18:55:24;;;;;;;;;;;2.30;99.90;;;;;;8349440;28;19939;-67
2023/03/07 18:59:25;;;;;;;;;;;2.20;99.90;;;;;;8354724;28;19940;-67
2023/03/07 19:03:27;;;;;;;;;;;2.10;99.90;;;;;;8340845;28;20384;-67
2023/03/07 19:07:30;;;;;;;;;;;2.00;99.90;;;;;;8350475;28;20258;-67
2023/03/07 19:11:32;;;;;;;;;;;2.00;99.90;;;;;;8356221;28;20425;-67
2023/03/07 19:15:34;;;;;;;;;;;1.90;99.90;;;;;;8356975;28;19924;-67
2023/03/07 19:19:35;;;;;;;;;;;1.90;99.90;;;;;;8370396;28;19931;-67
2023/03/07 19:23:37;;;;;;;;;;;1.80;99.90;;;;;;8358395;28;20368;-67
2023/03/07 19:27:39;;;;;;;;;;;1.70;99.90;;;;;;8356054;28;19970;-67
2023/03/07 19:31:42;;;;;;;;;;;1.70;99.90;;;;;;8351922;28;19967;-67
2023/03/07 19:35:44;;;;;;;;;;;1.70;99.90;;;;;;8358349;28;19925;-67
2023/03/07 19:39:49;;;;;;;;;;;1.60;99.90;;;;;;8359239;28;19928;-67
2023/03/07 19:43:51;;;;;;;;;;;1.60;99.90;;;;;;8354873;28;19975;-67
2023/03/07 19:48:11;;;;;;;;;;;1.50;99.90;;;;;;8360012;28;19971;-68
2023/03/07 19:52:13;;;;;;;;;;;1.40;99.90;;;;;;8354865;28;19925;-67
2023/03/07 19:56:17;;;;;;;;;;;1.40;99.90;;;;;;8339224;28;20045;-67
2023/03/07 20:00:20;;;;;;;;;;;1.40;99.90;;;;;;8349183;28;20022;-67
2023/03/07 20:04:22;;;;;;;;;;;1.30;99.90;;;;;;8338923;28;19931;-67
2023/03/07 20:08:23;;;;;;;;;;;1.30;99.90;;;;;;8358611;28;19929;-68
2023/03/07 20:12:25;;;;;;;;;;;1.30;99.90;;;;;;8354803;28;19925;-67
2023/03/07 20:16:28;;;;;;;;;;;1.20;99.90;;;;;;8355235;28;24307;-67
2023/03/07 20:20:30;;;;;;;;;;;1.10;99.90;;;;;;8353632;28;19929;-67
2023/03/07 20:24:32;;;;;;;;;;;1.10;99.90;;;;;;8355401;28;19929;-67
2023/03/07 20:28:34;;;;;;;;;;;1.00;99.90;;;;;;8345125;28;19940;-67
2023/03/07 20:32:36;;;;;;;;;;;1.00;99.90;;;;;;8351005;28;19924;-67
2023/03/07 20:36:37;;;;;;;;;;;1.00;99.90;;;;;;8361430;28;20300;-67
2023/03/07 20:40:39;;;;;;;;;;;1.00;99.90;;;;;;8340683;28;20377;-68
2023/03/07 20:44:41;;;;;;;;;;;0.90;99.90;;;;;;8359518;28;20349;-67
2023/03/07 20:48:43;;;;;;;;;;;1.00;99.90;;;;;;8359761;28;19925;-67
2023/03/07 20:52:44;;;;;;;;;;;1.00;99.90;;;;;;8358208;28;19960;-67
2023/03/07 20:56:46;;;;;;;;;;;0.90;99.90;;;;;;8352601;28;19925;-67
2023/03/07 21:00:51;;;;;;;;;;;0.80;99.90;;;;;;8359073;28;19925;-67
2023/03/07 21:04:52;;;;;;;;;;;0.70;99.90;;;;;;8344139;28;20325;-67
2023/03/07 21:08:56;;;;;;;;;;;0.60;99.90;;;;;;8352508;28;20300;-67
2023/03/07 21:12:58;;;;;;;;;;;0.70;99.90;;;;;;8360196;28;19931;-67
2023/03/07 21:17:01;;;;;;;;;;;0.60;99.90;;;;;;8349764;28;20010;-67
2023/03/07 21:21:13;;;;;;;;;;;0.60;99.90;;;;;;8358547;28;19925;-67
2023/03/07 21:25:14;;;;;;;;;;;0.60;99.90;;;;;;8361801;28;19979;-67
2023/03/07 21:29:16;;;;;;;;;;;0.60;99.90;;;;;;8360386;28;19959;-67
2023/03/07 21:33:18;;;;;;;;;;;0.60;99.90;;;;;;8358052;28;19928;-67
2023/03/07 21:37:19;;;;;;;;;;;0.60;99.90;;;;;;8359574;28;19929;-67
2023/03/07 21:41:23;;;;;;;;;;;0.50;99.90;;;;;;8354685;28;19932;-68
2023/03/07 21:45:25;;;;;;;;;;;0.50;99.90;;;;;;8357150;28;20323;-67
2023/03/07 21:49:27;;;;;;;;;;;0.50;99.90;;;;;;8354820;28;19936;-67
2023/03/07 21:53:29;;;;;;;;;;;0.50;99.90;;;;;;8353609;28;20019;-67
2023/03/07 21:57:31;;;;;;;;;;;0.50;99.90;;;;;;8352763;28;19929;-67
2023/03/07 22:01:33;;;;;;;;;;;0.50;99.90;;;;;;8360410;28;20023;-67
2023/03/07 22:05:36;;;;;;;;;;;0.40;99.90;;;;;;8370845;28;20004;-67
2023/03/07 22:09:38;;;;;;;;;;;0.40;99.90;;;;;;8380294;28;19924;-68
2023/03/07 22:13:41;;;;;;;;;;;0.40;99.90;;;;;;8385331;28;20566;-67
2023/03/07 22:17:43;;;;;;;;;;;0.40;99.90;;;;;;8383614;28;19925;-67
2023/03/07 22:21:45;;;;;;;;;;;0.30;99.90;;;;;;8381045;28;19925;-67
2023/03/07 22:25:46;;;;;;;;;;;0.30;99.90;;;;;;8378774;28;19936;-67
2023/03/07 22:29:48;;;;;;;;;;;0.20;99.90;;;;;;8381786;28;19938;-67
2023/03/07 22:33:50;;;;;;;;;;;0.30;99.90;;;;;;8374191;28;20394;-67
2023/03/07 22:37:52;;;;;;;;;;;0.30;99.90;;;;;;8383589;28;20468;-67
2023/03/07 22:41:53;;;;;;;;;;;0.30;99.90;;;;;;8372938;28;19970;-67
2023/03/07 23:01:09;;;;;;;;;;;0.10;99.90;;;;;;8380585;28;19946;-67
2023/03/07 23:05:11;;;;;;;;;;;0.10;99.90;;;;;;8382354;28;19928;-67
2023/03/07 23:24:23;;;;;;;;;;;0.00;99.90;;;;;;8374237;28;19935;-67
2023/03/07 23:28:24;;;;;;;;;;;0.00;99.90;;;;;;8387778;28;19924;-67
2023/03/07 23:32:26;;;;;;;;;;;0.00;99.90;;;;;;8383803;28;19966;-67
2023/03/07 23:36:29;;;;;;;;;;;0.00;99.90;;;;;;8373454;28;19928;-67
2023/03/07 23:40:31;;;;;;;;;;;-0.10;99.90;;;;;;8378048;28;19929;-67
2023/03/07 23:44:32;;;;;;;;;;;-0.10;99.90;;;;;;8390098;28;19934;-67
2023/03/07 23:48:34;;;;;;;;;;;-0.20;99.90;;;;;;8384482;28;19932;-67
2023/03/07 23:52:35;;;;;;;;;;;-0.30;99.90;;;;;;8374433;28;20110;-67
2023/03/07 23:56:37;;;;;;;;;;;-0.40;99.90;;;;;;8364211;28;19928;-67
